Time;durP1;ratioP1;P1;durP2;ratioP2;P2;SDS_P1;SDS_P2;PMS_P1;PMS_P2;Temp;Humidity;BMP_temperature;BMP_pressure;BME280_temperature;BME280_humidity;BME280_pressure;Samples;Min_cycle;Max_cycle;Signal;HPM_P1;HPM_P2
2022/09/06 00:08:51;;;;;;;56.67;39.35;;;12.90;99.90;;;;;;20713689;28;20030;-54
2022/09/06 00:18:54;;;;;;;58.80;39.97;;;12.90;99.90;;;;;;20726148;28;20038;-53
2022/09/06 00:28:57;;;;;;;52.83;37.05;;;12.90;99.90;;;;;;20750659;28;20037;-59
2022/09/06 00:39:00;;;;;;;54.33;38.25;;;12.80;99.90;;;;;;20741735;28;20038;-61
2022/09/06 00:49:10;;;;;;;50.08;35.72;;;12.80;99.90;;;;;;20728303;28;20050;-55
2022/09/06 00:59:15;;;;;;;47.97;33.65;;;12.70;99.90;;;;;;20725448;28;20046;-60
2022/09/06 01:09:28;;;;;;;45.70;33.47;;;12.60;99.90;;;;;;20740858;28;20037;-57
2022/09/06 01:19:58;;;;;;;45.22;33.28;;;12.70;99.90;;;;;;20725510;28;20109;-60
2022/09/06 01:30:11;;;;;;;53.28;37.20;;;12.80;99.90;;;;;;20702892;28;20025;-58
2022/09/06 01:40:17;;;;;;;50.15;34.95;;;12.60;99.90;;;;;;20740322;28;20406;-54
2022/09/06 01:50:32;;;;;;;26.33;22.10;;;12.60;99.90;;;;;;20724262;28;20053;-51
2022/09/06 02:01:00;;;;;;;39.78;28.38;;;12.60;99.90;;;;;;20737739;28;20038;-53
2022/09/06 02:11:08;;;;;;;32.45;24.67;;;12.60;99.90;;;;;;20723948;28;20029;-60
2022/09/06 02:21:13;;;;;;;40.95;27.23;;;12.40;99.90;;;;;;20739378;28;20041;-52
2022/09/06 02:31:24;;;;;;;49.50;35.05;;;12.20;99.90;;;;;;20736464;28;20084;-60
2022/09/06 02:41:28;;;;;;;61.58;40.95;;;12.60;99.90;;;;;;20733912;28;20050;-54
2022/09/06 02:51:38;;;;;;;62.50;40.67;;;12.60;99.90;;;;;;20723838;28;20050;-60
2022/09/06 03:01:40;;;;;;;60.55;40.47;;;12.60;99.90;;;;;;20744711;28;20096;-55
2022/09/06 03:11:43;;;;;;;60.95;40.13;;;12.60;99.90;;;;;;20754175;28;20103;-53
2022/09/06 03:21:45;;;;;;;60.55;40.90;;;12.50;99.90;;;;;;20762913;28;20042;-54
2022/09/06 03:31:48;;;;;;;57.25;39.42;;;12.60;99.90;;;;;;20748316;28;20096;-54
2022/09/06 03:41:50;;;;;;;58.40;38.90;;;12.60;99.90;;;;;;20765465;28;20064;-55
2022/09/06 03:51:53;;;;;;;66.95;44.38;;;12.60;99.90;;;;;;20737856;28;20104;-54
2022/09/06 04:01:55;;;;;;;75.88;46.63;;;12.60;99.90;;;;;;20756892;28;20038;-60
2022/09/06 04:11:58;;;;;;;76.72;47.50;;;12.50;99.90;;;;;;20734023;28;20060;-53
2022/09/06 04:22:00;;;;;;;60.25;40.80;;;12.50;99.90;;;;;;20715329;28;20064;-58
2022/09/06 04:32:03;;;;;;;67.15;39.47;;;12.40;99.90;;;;;;20737135;28;20383;-53
2022/09/06 04:42:05;;;;;;;70.53;45.28;;;12.40;99.90;;;;;;20715232;28;20483;-60
2022/09/06 04:52:10;;;;;;;70.82;45.83;;;12.40;99.90;;;;;;20731501;28;20045;-53
2022/09/06 05:02:12;;;;;;;70.55;44.00;;;12.50;99.90;;;;;;20727061;28;20042;-59
2022/09/06 05:12:14;;;;;;;66.45;43.55;;;12.50;99.90;;;;;;20724585;28;20096;-53
2022/09/06 05:22:17;;;;;;;59.10;40.47;;;12.70;99.90;;;;;;20720778;28;20046;-53
2022/09/06 05:32:19;;;;;;;61.80;42.53;;;12.80;99.90;;;;;;20758002;28;20112;-53
2022/09/06 05:42:21;;;;;;;65.63;43.78;;;13.10;99.90;;;;;;20739414;28;20041;-54
2022/09/06 05:52:24;;;;;;;67.80;45.05;;;13.20;99.90;;;;;;20741967;28;20402;-60
2022/09/06 06:02:31;;;;;;;68.70;45.35;;;13.30;99.90;;;;;;20736394;28;20399;-54
2022/09/06 06:12:33;;;;;;;65.95;44.63;;;13.50;99.90;;;;;;20756598;28;20038;-55
2022/09/06 06:22:36;;;;;;;53.13;39.42;;;13.80;99.90;;;;;;20735535;28;20482;-50
2022/09/06 06:32:39;;;;;;;49.28;34.45;;;14.10;99.90;;;;;;20737939;28;20030;-52
2022/09/06 06:42:41;;;;;;;33.53;26.98;;;14.80;99.90;;;;;;20702179;28;20038;-58
2022/09/06 06:52:44;;;;;;;24.52;21.25;;;15.90;99.90;;;;;;20753642;28;20050;-57
2022/09/06 07:02:47;;;;;;;18.92;16.95;;;17.50;99.90;;;;;;20735011;28;20034;-59
2022/09/06 07:12:50;;;;;;;15.38;13.77;;;18.60;99.90;;;;;;20734427;28;20041;-61
2022/09/06 07:23:01;;;;;;;16.73;14.50;;;19.60;99.90;;;;;;20741853;28;20046;-62
2022/09/06 07:33:04;;;;;;;14.38;12.98;;;20.50;99.90;;;;;;20751168;28;20030;-61
2022/09/06 07:43:06;;;;;;;14.88;13.43;;;20.90;99.90;;;;;;20698591;28;20388;-59
2022/09/06 07:53:09;;;;;;;17.00;15.27;;;21.70;99.90;;;;;;20698555;28;20069;-59
2022/09/06 08:03:13;;;;;;;16.15;14.40;;;22.20;99.90;;;;;;20695254;28;20084;-59
2022/09/06 08:13:15;;;;;;;14.52;13.02;;;22.90;99.90;;;;;;20703528;28;20061;-61
2022/09/06 08:23:17;;;;;;;18.42;14.90;;;23.60;99.90;;;;;;20704013;28;20054;-59
2022/09/06 08:33:20;;;;;;;14.57;13.25;;;24.40;99.90;;;;;;20760311;28;20041;-60
2022/09/06 08:43:23;;;;;;;15.05;13.55;;;24.60;99.90;;;;;;20728038;28;20057;-59
2022/09/06 08:53:26;;;;;;;16.00;14.32;;;24.10;99.90;;;;;;20746245;28;20050;-58
2022/09/06 09:03:35;;;;;;;16.83;14.85;;;24.00;99.90;;;;;;20745814;28;20092;-58
2022/09/06 09:13:50;;;;;;;12.90;11.60;;;23.30;99.90;;;;;;20715968;28;20034;-62
2022/09/06 09:24:00;;;;;;;14.00;12.63;;;23.60;99.90;;;;;;20732324;28;20030;-61
2022/09/06 09:34:04;;;;;;;14.82;13.18;;;24.50;99.90;;;;;;20756031;28;20038;-59
2022/09/06 09:44:17;;;;;;;15.93;14.32;;;24.40;99.90;;;;;;20756589;28;20117;-57
2022/09/06 09:54:32;;;;;;;11.82;10.65;;;24.60;99.90;;;;;;20742121;28;20462;-56
2022/09/06 10:04:48;;;;;;;13.00;11.77;;;24.70;99.90;;;;;;20716692;28;20042;-58
2022/09/06 10:14:51;;;;;;;13.68;12.32;;;24.20;99.90;;;;;;20740577;28;20042;-57
2022/09/06 10:25:17;;;;;;;15.70;13.93;;;24.00;99.90;;;;;;20737188;28;20033;-58
2022/09/06 10:35:34;;;;;;;18.40;12.55;;;25.40;99.90;;;;;;20721464;28;20437;-59
2022/09/06 10:45:54;;;;;;;12.27;11.15;;;25.70;99.90;;;;;;20738515;28;20045;-58
2022/09/06 10:56:14;;;;;;;16.85;15.25;;;25.20;99.90;;;;;;20738991;28;20081;-57
2022/09/06 11:06:18;;;;;;;14.38;12.98;;;25.10;99.90;;;;;;20736130;28;20415;-57
2022/09/06 11:16:28;;;;;;;16.08;13.82;;;25.00;99.90;;;;;;20720535;28;20363;-59
2022/09/06 11:26:41;;;;;;;16.98;15.27;;;24.10;99.90;;;;;;20750503;28;20041;-61
2022/09/06 11:36:50;;;;;;;19.95;17.95;;;22.90;99.90;;;;;;20735169;28;20067;-56
2022/09/06 11:46:57;;;;;;;21.42;19.30;;;22.00;99.90;;;;;;20752509;28;20049;-54
2022/09/06 11:57:22;;;;;;;25.38;22.85;;;21.50;99.90;;;;;;20715957;28;20042;-55
2022/09/06 12:07:26;;;;;;;22.38;20.08;;;20.90;99.90;;;;;;20759352;28;20038;-56
2022/09/06 12:17:46;;;;;;;18.08;16.27;;;21.40;99.90;;;;;;20738401;28;20038;-56
2022/09/06 12:28:00;;;;;;;17.10;15.02;;;23.40;99.90;;;;;;20745774;28;20030;-59
2022/09/06 12:38:06;;;;;;;13.18;10.27;;;24.60;99.90;;;;;;20727657;28;20482;-58
2022/09/06 12:48:11;;;;;;;11.63;10.52;;;27.00;99.90;;;;;;20746480;28;20053;-58
2022/09/06 12:58:14;;;;;;;13.10;11.88;;;27.70;99.90;;;;;;20726973;28;20073;-59
2022/09/06 13:08:27;;;;;;;13.65;11.05;;;28.20;99.90;;;;;;20727272;28;20454;-59
2022/09/06 13:18:36;;;;;;;12.77;10.50;;;28.20;99.90;;;;;;20708655;28;20042;-59
2022/09/06 13:28:39;;;;;;;12.73;11.52;;;27.70;99.90;;;;;;20752543;28;20077;-58
2022/09/06 13:38:45;;;;;;;17.15;13.40;;;27.50;99.90;;;;;;20727199;28;20045;-58
2022/09/06 13:48:48;;;;;;;15.73;13.33;;;27.00;99.90;;;;;;20745087;28;20064;-57
2022/09/06 13:58:50;;;;;;;12.43;11.23;;;25.60;99.90;;;;;;20738540;28;20383;-62
2022/09/06 14:08:52;;;;;;;17.20;15.50;;;24.40;99.90;;;;;;20740418;28;20068;-57
2022/09/06 14:18:56;;;;;;;18.00;16.10;;;23.50;99.90;;;;;;20753083;28;20065;-54
2022/09/06 14:28:58;;;;;;;20.40;18.30;;;22.50;99.90;;;;;;20743392;28;20096;-55
2022/09/06 14:39:03;;;;;;;20.60;15.68;;;22.00;99.90;;;;;;20748394;28;20430;-57
2022/09/06 14:49:09;;;;;;;12.43;11.23;;;22.70;99.90;;;;;;20718453;28;20565;-54
2022/09/06 14:59:12;;;;;;;13.98;12.55;;;23.60;99.90;;;;;;20761894;28;20394;-56
2022/09/06 15:09:16;;;;;;;15.40;13.80;;;23.40;99.90;;;;;;20768949;28;20038;-56
2022/09/06 15:19:19;;;;;;;14.73;12.77;;;22.30;99.90;;;;;;20759411;28;20494;-62
2022/09/06 15:29:22;;;;;;;16.38;14.73;;;21.40;99.90;;;;;;20771081;28;20033;-55
2022/09/06 15:39:24;;;;;;;14.40;11.85;;;20.80;99.90;;;;;;20739444;28;20101;-53
2022/09/06 15:49:30;;;;;;;16.92;14.35;;;20.20;99.90;;;;;;20754662;28;20554;-53
2022/09/06 15:59:33;;;;;;;19.13;16.33;;;19.60;99.90;;;;;;20733286;28;20073;-53
2022/09/06 16:09:35;;;;;;;18.90;16.63;;;19.20;99.90;;;;;;20738320;28;20038;-61
2022/09/06 16:19:39;;;;;;;25.10;19.48;;;18.80;99.90;;;;;;20710902;28;20033;-61
2022/09/06 16:29:41;;;;;;;18.60;16.58;;;18.30;99.90;;;;;;20731932;28;20038;-60
2022/09/06 16:39:44;;;;;;;24.20;17.67;;;17.90;99.90;;;;;;20682015;28;20034;-61
2022/09/06 16:49:47;;;;;;;22.90;19.37;;;17.60;99.90;;;;;;20635193;28;1391703;-60
2022/09/06 16:59:50;;;;;;;24.55;18.70;;;17.30;99.90;;;;;;20745398;28;20284;-60
2022/09/06 17:09:52;;;;;;;21.65;19.15;;;17.10;99.90;;;;;;20756428;28;20041;-55
2022/09/06 17:19:56;;;;;;;23.27;18.90;;;16.80;99.90;;;;;;20707488;28;20092;-53
2022/09/06 17:29:58;;;;;;;25.80;22.33;;;16.60;99.90;;;;;;20752444;28;20037;-53
2022/09/06 17:40:01;;;;;;;30.35;25.17;;;16.40;99.90;;;;;;20743251;28;20080;-64
2022/09/06 17:50:04;;;;;;;29.50;24.02;;;16.10;99.90;;;;;;20704434;28;20058;-64
2022/09/06 18:00:07;;;;;;;34.50;27.65;;;15.70;99.90;;;;;;20706137;28;20092;-65
2022/09/06 18:10:09;;;;;;;34.17;26.30;;;15.40;99.90;;;;;;20704710;28;20037;-66
2022/09/06 18:20:13;;;;;;;31.40;24.35;;;15.20;99.90;;;;;;20735070;28;20029;-66
2022/09/06 18:30:15;;;;;;;33.92;24.20;;;15.00;99.90;;;;;;20737397;28;20042;-65
2022/09/06 18:40:18;;;;;;;34.17;24.70;;;14.90;99.90;;;;;;20718429;28;20042;-66
2022/09/06 18:50:21;;;;;;;30.95;25.85;;;14.90;99.90;;;;;;20739633;28;20498;-66
2022/09/06 19:00:25;;;;;;;35.92;26.90;;;14.90;99.90;;;;;;20701712;28;20524;-65
2022/09/06 19:10:28;;;;;;;28.00;21.92;;;14.80;99.90;;;;;;20734068;28;20486;-62
2022/09/06 19:20:31;;;;;;;32.70;23.42;;;14.70;99.90;;;;;;20733018;28;20037;-61
2022/09/06 19:30:34;;;;;;;27.67;22.73;;;14.60;99.90;;;;;;20733270;28;20050;-62
2022/09/06 19:40:38;;;;;;;25.60;19.73;;;14.50;99.90;;;;;;20689225;28;20029;-62
2022/09/06 19:50:40;;;;;;;28.08;20.88;;;14.60;99.90;;;;;;20750322;28;20049;-64
2022/09/06 20:00:45;;;;;;;29.67;20.85;;;14.70;99.90;;;;;;20734596;28;20069;-62
2022/09/06 20:10:54;;;;;;;29.50;21.15;;;14.70;99.90;;;;;;20746533;28;20061;-64
2022/09/06 20:21:00;;;;;;;30.73;22.80;;;14.50;99.90;;;;;;20746434;28;20450;-64
2022/09/06 20:31:08;;;;;;;26.52;20.17;;;14.50;99.90;;;;;;20713789;28;20041;-65
2022/09/06 20:41:14;;;;;;;23.40;18.65;;;14.50;99.90;;;;;;20722627;28;20064;-63
2022/09/06 20:51:20;;;;;;;19.85;15.55;;;14.70;99.90;;;;;;20713643;28;20058;-62
2022/09/06 21:01:26;;;;;;;18.17;14.88;;;14.70;99.90;;;;;;20745406;28;20084;-64
2022/09/06 21:11:28;;;;;;;18.30;14.90;;;14.70;99.90;;;;;;20729866;28;20041;-67
2022/09/06 21:21:33;;;;;;;19.52;15.27;;;14.50;99.90;;;;;;20725345;28;20113;-63
2022/09/06 21:31:36;;;;;;;22.45;15.43;;;14.50;99.90;;;;;;20702340;28;20041;-64
2022/09/06 21:41:41;;;;;;;22.55;16.17;;;14.40;99.90;;;;;;20706777;28;20038;-65
2022/09/06 21:51:44;;;;;;;22.15;14.40;;;14.50;99.90;;;;;;20751040;28;20076;-65
2022/09/06 22:01:46;;;;;;;17.95;13.77;;;14.80;99.90;;;;;;20697787;28;20037;-47
2022/09/06 22:11:50;;;;;;;20.23;14.90;;;14.90;99.90;;;;;;20748236;28;20471;-50
2022/09/06 22:21:53;;;;;;;16.85;14.13;;;15.30;99.90;;;;;;20722736;28;20069;-52
2022/09/06 22:31:56;;;;;;;19.55;15.65;;;15.30;99.90;;;;;;20742264;28;20065;-50
2022/09/06 22:41:59;;;;;;;25.58;18.90;;;15.00;99.90;;;;;;20751428;28;20042;-57
2022/09/06 22:52:02;;;;;;;29.10;21.23;;;14.70;99.90;;;;;;20718800;28;20084;-50
2022/09/06 23:02:05;;;;;;;28.40;22.05;;;14.40;99.90;;;;;;20718131;28;20096;-58
2022/09/06 23:12:07;;;;;;;28.85;23.13;;;14.40;99.90;;;;;;20718053;28;20045;-50
2022/09/06 23:22:10;;;;;;;27.20;21.33;;;14.60;99.90;;;;;;20745934;28;20064;-58
2022/09/06 23:32:13;;;;;;;34.38;27.10;;;14.70;99.90;;;;;;20703967;28;20030;-52
2022/09/06 23:42:18;;;;;;;34.17;25.02;;;14.70;99.90;;;;;;20732340;28;20030;-58
2022/09/06 23:52:22;;;;;;;33.38;25.05;;;14.70;99.90;;;;;;20715141;28;20497;-48
